Time;durP1;ratioP1;P1;durP2;ratioP2;P2;SDS_P1;SDS_P2;PMS_P1;PMS_P2;Temp;Humidity;BMP_temperature;BMP_pressure;BME280_temperature;BME280_humidity;BME280_pressure;Samples;Min_cycle;Max_cycle;Signal;HPM_P1;HPM_P2
2022/03/28 00:01:40;;;;;;;10.48;7.10;;;8.90;99.90;;;;;;5014851;28;20108;-59
2022/03/28 00:04:05;;;;;;;12.40;6.47;;;8.80;99.90;;;;;;5016445;28;20101;-59
2022/03/28 00:06:31;;;;;;;14.20;7.07;;;8.80;99.90;;;;;;5014691;28;20032;-58
2022/03/28 00:08:56;;;;;;;10.90;6.38;;;8.80;99.90;;;;;;5015970;28;20022;-55
2022/03/28 00:11:22;;;;;;;9.82;6.22;;;8.80;99.90;;;;;;5015929;28;20116;-57
2022/03/28 00:13:48;;;;;;;11.60;6.32;;;8.70;99.90;;;;;;5014476;28;20025;-58
2022/03/28 00:16:14;;;;;;;13.30;6.53;;;8.70;99.90;;;;;;5015327;28;20076;-56
2022/03/28 00:18:40;;;;;;;10.27;6.15;;;8.70;99.90;;;;;;5014853;28;20101;-58
2022/03/28 00:21:06;;;;;;;13.65;7.07;;;8.70;99.90;;;;;;5014460;28;20054;-59
2022/03/28 00:23:32;;;;;;;12.32;6.68;;;8.60;99.90;;;;;;5015713;28;20054;-57
2022/03/28 00:25:58;;;;;;;13.68;7.20;;;8.60;99.90;;;;;;5014336;28;20030;-60
2022/03/28 00:28:24;;;;;;;14.68;6.55;;;8.60;99.90;;;;;;5015844;28;20025;-56
2022/03/28 00:30:50;;;;;;;15.48;7.35;;;8.60;99.90;;;;;;5014496;28;20388;-59
2022/03/28 00:33:16;;;;;;;11.90;6.20;;;8.70;99.90;;;;;;5015450;28;20026;-59
2022/03/28 00:35:42;;;;;;;12.20;7.07;;;8.60;99.90;;;;;;5015473;28;20037;-56
2022/03/28 00:38:07;;;;;;;13.48;6.45;;;8.70;99.90;;;;;;5014352;28;20022;-59
2022/03/28 00:40:33;;;;;;;12.73;6.40;;;8.70;99.90;;;;;;5015369;28;20125;-60
2022/03/28 00:43:03;;;;;;;12.10;6.72;;;8.80;99.90;;;;;;5014072;28;20026;-58
2022/03/28 00:45:32;;;;;;;14.05;6.95;;;8.90;99.90;;;;;;5014651;28;20100;-59
2022/03/28 00:47:59;;;;;;;17.67;6.82;;;8.80;99.90;;;;;;5015157;28;20061;-59
2022/03/28 00:50:28;;;;;;;12.43;7.10;;;8.80;99.90;;;;;;5015215;28;20108;-58
2022/03/28 00:52:53;;;;;;;13.07;6.32;;;8.60;99.90;;;;;;5014147;28;20033;-60
2022/03/28 00:55:19;;;;;;;14.98;6.93;;;8.60;99.90;;;;;;5014131;28;20030;-60
2022/03/28 00:57:46;;;;;;;13.68;6.05;;;8.60;99.90;;;;;;5013996;28;20030;-59
2022/03/28 01:00:12;;;;;;;15.48;7.32;;;8.50;99.90;;;;;;5014225;28;20026;-59
2022/03/28 01:02:38;;;;;;;14.73;6.45;;;8.50;99.90;;;;;;5013621;28;20021;-59
2022/03/28 01:05:04;;;;;;;11.07;6.90;;;8.40;99.90;;;;;;5014853;28;20038;-60
2022/03/28 01:07:30;;;;;;;12.55;6.32;;;8.50;99.90;;;;;;5013556;28;20029;-59
2022/03/28 01:09:58;;;;;;;13.23;6.88;;;8.50;99.90;;;;;;5013638;28;20026;-60
2022/03/28 01:12:26;;;;;;;14.30;7.35;;;8.40;99.90;;;;;;5014516;28;20049;-59
2022/03/28 01:14:53;;;;;;;15.18;6.78;;;8.30;99.90;;;;;;5013487;28;20022;-57
2022/03/28 01:20:03;;;;;;;12.32;6.85;;;8.30;99.90;;;;;;5014925;28;20087;-60
2022/03/28 01:22:29;;;;;;;13.35;6.32;;;8.50;99.90;;;;;;5013319;28;20029;-60
2022/03/28 01:24:59;;;;;;;12.70;7.07;;;8.40;99.90;;;;;;5013252;28;20022;-60
2022/03/28 01:27:25;;;;;;;14.20;7.10;;;8.40;99.90;;;;;;5014370;28;20488;-60
2022/03/28 01:29:50;;;;;;;12.48;7.20;;;8.30;99.90;;;;;;5014500;28;20021;-60
2022/03/28 01:32:16;;;;;;;12.52;6.57;;;8.20;99.90;;;;;;5013658;28;20164;-60
2022/03/28 01:34:42;;;;;;;14.00;7.57;;;8.10;99.90;;;;;;5013166;28;20029;-59
2022/03/28 01:37:07;;;;;;;13.27;7.55;;;8.10;99.90;;;;;;5013127;28;20108;-59
2022/03/28 01:39:33;;;;;;;12.50;6.80;;;8.00;99.90;;;;;;5013026;28;20053;-59
2022/03/28 01:41:58;;;;;;;14.52;7.20;;;8.10;99.90;;;;;;5013012;28;20026;-59
2022/03/28 01:44:25;;;;;;;13.25;7.20;;;8.00;99.90;;;;;;5012960;28;20029;-55
2022/03/28 01:46:51;;;;;;;12.20;7.03;;;8.00;99.90;;;;;;5012979;28;20030;-59
2022/03/28 01:49:18;;;;;;;17.10;7.70;;;7.90;99.90;;;;;;5013490;28;20072;-62
2022/03/28 01:51:46;;;;;;;13.75;7.68;;;7.80;99.90;;;;;;5012956;28;20026;-62
2022/03/28 01:54:12;;;;;;;15.48;7.70;;;7.80;99.90;;;;;;5012713;28;20033;-61
2022/03/28 01:56:38;;;;;;;13.63;6.95;;;7.70;99.90;;;;;;5012005;28;20038;-60
2022/03/28 01:59:05;;;;;;;18.85;7.70;;;7.70;99.90;;;;;;5014011;28;20117;-61
2022/03/28 02:01:31;;;;;;;15.65;7.80;;;7.70;99.90;;;;;;5012766;28;20026;-62
2022/03/28 02:03:57;;;;;;;13.40;7.07;;;7.70;99.90;;;;;;5012955;28;20053;-61
2022/03/28 02:06:23;;;;;;;16.05;6.65;;;7.60;99.90;;;;;;5012845;28;20467;-62
2022/03/28 02:08:48;;;;;;;14.48;7.82;;;7.50;99.90;;;;;;5013622;28;20030;-62
2022/03/28 02:11:47;;;;;;;18.92;8.27;;;7.50;99.90;;;;;;5013727;28;20026;-62
2022/03/28 02:14:13;;;;;;;14.82;7.28;;;7.40;99.90;;;;;;5012469;28;20030;-61
2022/03/28 02:16:38;;;;;;;13.13;7.53;;;7.30;99.90;;;;;;5013622;28;20030;-62
2022/03/28 02:19:04;;;;;;;12.30;6.60;;;7.30;99.90;;;;;;5012383;28;20026;-61
2022/03/28 02:21:30;;;;;;;14.48;7.00;;;7.30;99.90;;;;;;5012402;28;20030;-61
2022/03/28 02:23:55;;;;;;;12.38;7.40;;;7.30;99.90;;;;;;5012296;28;20400;-61
2022/03/28 02:26:21;;;;;;;13.73;7.68;;;7.30;99.90;;;;;;5012606;28;20029;-61
2022/03/28 02:28:47;;;;;;;13.93;7.60;;;7.30;99.90;;;;;;5012370;28;20125;-61
2022/03/28 02:31:13;;;;;;;17.00;9.02;;;7.30;99.90;;;;;;5012650;28;20498;-61
2022/03/28 02:33:39;;;;;;;15.02;7.20;;;7.30;99.90;;;;;;5012280;28;20117;-62
2022/03/28 02:36:05;;;;;;;13.93;8.15;;;7.40;99.90;;;;;;5013434;28;20514;-62
2022/03/28 02:38:30;;;;;;;13.55;7.15;;;7.20;99.90;;;;;;5013468;28;20080;-62
2022/03/28 02:40:56;;;;;;;12.60;7.22;;;7.30;99.90;;;;;;5012607;28;20117;-62
2022/03/28 02:43:23;;;;;;;16.05;7.80;;;7.20;99.90;;;;;;5013383;28;20143;-61
2022/03/28 02:45:48;;;;;;;16.42;8.10;;;7.20;99.90;;;;;;5013020;28;20022;-62
2022/03/28 02:48:14;;;;;;;19.27;8.88;;;7.20;99.90;;;;;;5012974;28;20028;-62
2022/03/28 02:50:39;;;;;;;16.27;7.45;;;7.20;99.90;;;;;;5012957;28;20028;-62
2022/03/28 02:53:05;;;;;;;13.68;6.95;;;7.20;99.90;;;;;;5013639;28;20034;-60
2022/03/28 02:55:31;;;;;;;13.95;7.28;;;7.20;99.90;;;;;;5012067;28;20041;-61
2022/03/28 02:57:56;;;;;;;13.73;7.35;;;7.20;99.90;;;;;;5013876;28;20042;-62
2022/03/28 03:00:22;;;;;;;11.70;6.35;;;7.10;99.90;;;;;;5013268;28;20123;-61
2022/03/28 03:02:48;;;;;;;12.25;6.43;;;7.00;99.90;;;;;;5013159;28;20113;-62
2022/03/28 03:05:13;;;;;;;12.43;6.93;;;7.00;99.90;;;;;;5013193;28;20018;-60
2022/03/28 03:07:39;;;;;;;15.30;7.13;;;6.90;99.90;;;;;;5012784;28;20029;-61
2022/03/28 03:10:06;;;;;;;14.00;6.75;;;6.90;99.90;;;;;;5015800;28;20033;-62
2022/03/28 03:12:32;;;;;;;12.27;7.00;;;7.00;99.90;;;;;;5016046;28;20029;-61
2022/03/28 03:14:58;;;;;;;14.23;7.00;;;7.00;99.90;;;;;;5016966;28;20408;-62
2022/03/28 03:17:24;;;;;;;14.00;7.10;;;7.00;99.90;;;;;;5015589;28;20393;-62
2022/03/28 03:19:49;;;;;;;12.70;6.60;;;7.00;99.90;;;;;;5016756;28;20028;-62
2022/03/28 03:22:16;;;;;;;12.85;6.20;;;6.90;99.90;;;;;;5016877;28;20057;-62
2022/03/28 03:24:45;;;;;;;12.02;6.82;;;6.90;99.90;;;;;;5016680;28;20026;-62
2022/03/28 03:27:12;;;;;;;15.63;6.93;;;6.90;99.90;;;;;;5015430;28;20129;-62
2022/03/28 03:29:38;;;;;;;11.80;7.15;;;6.70;99.90;;;;;;5016640;28;20049;-62
2022/03/28 03:32:05;;;;;;;14.27;6.43;;;6.60;99.90;;;;;;5016698;28;20054;-62
2022/03/28 03:34:31;;;;;;;12.85;7.35;;;6.60;99.90;;;;;;5015282;28;20037;-62
2022/03/28 03:36:57;;;;;;;13.10;7.47;;;6.70;99.90;;;;;;5015226;28;20026;-62
2022/03/28 03:39:25;;;;;;;11.15;6.55;;;6.70;99.90;;;;;;5016529;28;20092;-62
2022/03/28 03:41:51;;;;;;;17.23;6.82;;;6.70;99.90;;;;;;5016508;28;20026;-62
2022/03/28 03:44:16;;;;;;;13.95;7.75;;;6.80;99.90;;;;;;5015722;28;20030;-62
2022/03/28 03:46:42;;;;;;;13.27;7.00;;;6.80;99.90;;;;;;5016388;28;20116;-62
2022/03/28 03:49:11;;;;;;;13.95;7.60;;;6.80;99.90;;;;;;5016365;28;20026;-62
2022/03/28 03:51:37;;;;;;;14.93;7.22;;;6.80;99.90;;;;;;5015168;28;20018;-61
2022/03/28 03:54:03;;;;;;;11.55;6.72;;;6.80;99.90;;;;;;5015403;28;20036;-61
2022/03/28 03:56:29;;;;;;;12.20;6.80;;;6.70;99.90;;;;;;5015031;28;20037;-62
2022/03/28 03:58:56;;;;;;;12.13;6.28;;;6.70;99.90;;;;;;5015841;28;20057;-60
2022/03/28 04:01:23;;;;;;;12.02;6.57;;;6.60;99.90;;;;;;5016139;28;20033;-61
2022/03/28 04:03:48;;;;;;;11.73;6.00;;;6.70;99.90;;;;;;5014776;28;20026;-61
2022/03/28 04:06:14;;;;;;;10.13;5.55;;;6.60;99.90;;;;;;5015014;28;20022;-61
2022/03/28 04:08:40;;;;;;;14.48;6.55;;;6.70;99.90;;;;;;5015975;28;20022;-61
2022/03/28 04:11:06;;;;;;;11.25;6.57;;;6.70;99.90;;;;;;5016018;28;20018;-59
2022/03/28 04:13:35;;;;;;;12.80;6.90;;;6.70;99.90;;;;;;5015892;28;20030;-61
2022/03/28 04:16:02;;;;;;;11.55;6.45;;;6.60;99.90;;;;;;5016036;28;20099;-62
2022/03/28 04:18:28;;;;;;;14.40;7.05;;;6.50;99.90;;;;;;5014236;28;20053;-61
2022/03/28 04:20:54;;;;;;;12.27;6.65;;;6.50;99.90;;;;;;5013632;28;20053;-60
2022/03/28 04:23:21;;;;;;;16.92;7.25;;;6.50;99.90;;;;;;5014420;28;20072;-61
2022/03/28 04:25:47;;;;;;;10.90;6.35;;;6.50;99.90;;;;;;5014433;28;20061;-62
2022/03/28 04:28:12;;;;;;;12.75;6.57;;;6.40;99.90;;;;;;5015155;28;20053;-62
2022/03/28 04:30:38;;;;;;;13.02;6.60;;;6.40;99.90;;;;;;5015573;28;20026;-62
2022/03/28 04:33:07;;;;;;;18.17;6.45;;;6.30;99.90;;;;;;5014278;28;20476;-61
2022/03/28 04:35:33;;;;;;;13.48;7.10;;;6.20;99.90;;;;;;5014233;28;20113;-62
2022/03/28 04:38:00;;;;;;;13.50;6.45;;;6.20;99.90;;;;;;5015340;28;20050;-61
2022/03/28 04:40:25;;;;;;;13.20;6.30;;;6.30;99.90;;;;;;5015501;28;20026;-61
2022/03/28 04:42:51;;;;;;;12.85;6.82;;;6.20;99.90;;;;;;5015111;28;20368;-62
2022/03/28 04:45:17;;;;;;;16.67;7.18;;;6.20;99.90;;;;;;5015205;28;20127;-61
2022/03/28 04:47:42;;;;;;;14.93;7.10;;;6.20;99.90;;;;;;5015097;28;20084;-61
2022/03/28 04:50:08;;;;;;;13.38;7.65;;;6.20;99.90;;;;;;5013924;28;20022;-61
2022/03/28 04:52:34;;;;;;;10.77;6.70;;;6.10;99.90;;;;;;5015143;28;20025;-61
2022/03/28 04:55:00;;;;;;;14.68;6.63;;;6.00;99.90;;;;;;5015108;28;20083;-61
2022/03/28 04:57:26;;;;;;;13.05;6.50;;;6.00;99.90;;;;;;5014908;28;20393;-61
2022/03/28 04:59:52;;;;;;;16.33;7.38;;;6.00;99.90;;;;;;5015078;28;20033;-61
2022/03/28 05:02:18;;;;;;;14.15;6.82;;;6.10;99.90;;;;;;5015244;28;20094;-60
2022/03/28 05:04:43;;;;;;;12.73;7.00;;;6.00;99.90;;;;;;5015098;28;20034;-61
2022/03/28 05:07:09;;;;;;;15.35;6.95;;;6.00;99.90;;;;;;5014480;28;20055;-62
2022/03/28 05:09:35;;;;;;;13.60;7.35;;;6.10;99.90;;;;;;5013606;28;20032;-61
2022/03/28 05:12:01;;;;;;;14.32;7.30;;;6.00;99.90;;;;;;5014775;28;20022;-62
2022/03/28 05:14:26;;;;;;;13.80;7.30;;;6.00;99.90;;;;;;5013780;28;20027;-62
2022/03/28 05:16:53;;;;;;;10.35;6.50;;;6.00;99.90;;;;;;5013359;28;20026;-61
2022/03/28 05:19:18;;;;;;;20.15;8.85;;;6.00;99.90;;;;;;5014595;28;20023;-61
2022/03/28 05:21:44;;;;;;;20.33;8.13;;;5.90;99.90;;;;;;5014492;28;20021;-61
2022/03/28 05:24:09;;;;;;;23.08;9.40;;;5.80;99.90;;;;;;5013313;28;20567;-61
2022/03/28 05:26:35;;;;;;;18.05;8.98;;;5.70;99.90;;;;;;5014448;28;20034;-62
2022/03/28 05:29:01;;;;;;;22.00;9.27;;;5.80;99.90;;;;;;5013289;28;20108;-61
2022/03/28 05:31:27;;;;;;;17.13;9.32;;;5.90;99.90;;;;;;5013058;28;20026;-62
2022/03/28 05:33:52;;;;;;;19.35;8.70;;;6.00;99.90;;;;;;5013123;28;20030;-62
2022/03/28 05:36:18;;;;;;;13.55;7.45;;;6.20;99.90;;;;;;5013363;28;20026;-61
2022/03/28 05:38:45;;;;;;;16.67;7.07;;;6.50;99.90;;;;;;5013268;28;20049;-59
2022/03/28 05:41:10;;;;;;;15.00;7.88;;;6.60;99.90;;;;;;5013069;28;20065;-61
2022/03/28 05:43:37;;;;;;;17.65;7.85;;;6.80;99.90;;;;;;5012973;28;20072;-62
2022/03/28 05:46:03;;;;;;;11.95;6.20;;;7.10;99.90;;;;;;5014238;28;20103;-61
2022/03/28 05:48:30;;;;;;;16.48;7.00;;;7.40;99.90;;;;;;5014292;28;20022;-62
2022/03/28 05:50:56;;;;;;;11.75;6.57;;;7.80;99.90;;;;;;5014105;28;20021;-62
2022/03/28 05:53:21;;;;;;;13.52;6.63;;;8.10;99.90;;;;;;5013149;28;20141;-62
2022/03/28 05:55:48;;;;;;;27.70;7.13;;;8.20;99.90;;;;;;5014238;28;20121;-60
2022/03/28 05:58:14;;;;;;;14.02;6.97;;;8.70;99.90;;;;;;5013831;28;20041;-62
2022/03/28 06:00:40;;;;;;;18.70;8.10;;;8.90;99.90;;;;;;5013157;28;20115;-62
2022/03/28 06:03:06;;;;;;;16.58;6.63;;;9.20;99.90;;;;;;5012659;28;20053;-62
2022/03/28 06:05:32;;;;;;;11.63;6.55;;;9.50;99.90;;;;;;5014292;28;20022;-62
2022/03/28 06:07:59;;;;;;;14.60;6.90;;;9.60;99.90;;;;;;5013243;28;20065;-62
2022/03/28 06:10:25;;;;;;;15.98;7.55;;;9.20;99.90;;;;;;5013908;28;20022;-62
2022/03/28 06:12:51;;;;;;;13.00;6.65;;;9.10;99.90;;;;;;5012556;28;20088;-62
2022/03/28 06:15:17;;;;;;;13.20;7.20;;;9.10;99.90;;;;;;5013360;28;20373;-62
2022/03/28 06:17:43;;;;;;;12.30;6.72;;;9.50;99.90;;;;;;5013712;28;20076;-63
2022/03/28 06:20:10;;;;;;;15.73;8.40;;;10.30;99.90;;;;;;5013704;28;20026;-63
2022/03/28 06:22:36;;;;;;;9.63;6.15;;;11.10;99.90;;;;;;5012364;28;20052;-63
2022/03/28 06:25:03;;;;;;;15.10;6.78;;;11.80;99.90;;;;;;5013658;28;20469;-63
2022/03/28 06:27:29;;;;;;;12.40;6.35;;;12.50;99.90;;;;;;5013532;28;20055;-63
2022/03/28 06:29:55;;;;;;;13.35;5.90;;;13.20;99.90;;;;;;5013753;28;20022;-62
2022/03/28 06:32:20;;;;;;;17.88;7.00;;;13.50;99.90;;;;;;5012326;28;20072;-63
2022/03/28 06:34:48;;;;;;;12.63;6.82;;;14.10;99.90;;;;;;5012364;28;20026;-63
2022/03/28 06:37:15;;;;;;;12.07;7.07;;;14.70;99.90;;;;;;5012243;28;20029;-63
2022/03/28 06:39:41;;;;;;;12.60;7.22;;;15.30;99.90;;;;;;5012297;28;20048;-63
2022/03/28 06:42:07;;;;;;;12.82;7.20;;;15.30;99.90;;;;;;5012483;28;20022;-62
2022/03/28 06:44:33;;;;;;;11.43;6.55;;;15.70;99.90;;;;;;5016347;28;20030;-63
2022/03/28 06:46:59;;;;;;;10.70;6.75;;;16.30;99.90;;;;;;5016271;28;20436;-63
2022/03/28 06:49:24;;;;;;;11.32;7.20;;;16.50;99.90;;;;;;5016183;28;20028;-63
2022/03/28 06:51:50;;;;;;;17.60;9.60;;;16.80;99.90;;;;;;5016235;28;20411;-61
2022/03/28 06:54:19;;;;;;;15.75;8.23;;;16.60;99.90;;;;;;5017394;28;20022;-63
2022/03/28 06:56:45;;;;;;;14.20;7.07;;;16.90;99.90;;;;;;5015846;28;20033;-63
2022/03/28 06:59:11;;;;;;;17.92;8.57;;;17.10;99.90;;;;;;5017618;28;20030;-63
2022/03/28 07:01:36;;;;;;;15.68;8.73;;;17.10;99.90;;;;;;5016366;28;20026;-63
2022/03/28 07:04:03;;;;;;;15.57;9.63;;;17.20;99.90;;;;;;5015948;28;20393;-63
2022/03/28 07:06:29;;;;;;;16.20;7.47;;;17.50;99.90;;;;;;5016000;28;20022;-62
2022/03/28 07:08:54;;;;;;;15.98;8.63;;;18.00;99.90;;;;;;5015994;28;20022;-63
2022/03/28 07:11:20;;;;;;;15.55;8.80;;;18.50;99.90;;;;;;5015945;28;20457;-63
2022/03/28 07:13:46;;;;;;;11.45;8.05;;;18.70;99.90;;;;;;5017012;28;20037;-64
2022/03/28 07:16:12;;;;;;;14.82;8.55;;;19.10;99.90;;;;;;5015727;28;20503;-61
2022/03/28 07:18:37;;;;;;;13.15;7.60;;;20.20;99.90;;;;;;5016942;28;20076;-61
2022/03/28 07:21:03;;;;;;;12.07;7.97;;;20.60;99.90;;;;;;5015736;28;20032;-61
2022/03/28 07:23:30;;;;;;;13.60;8.10;;;20.40;99.90;;;;;;5016803;28;20029;-61
2022/03/28 07:25:56;;;;;;;15.88;8.10;;;20.20;99.70;;;;;;5017063;28;20018;-61
2022/03/28 07:28:22;;;;;;;15.88;8.77;;;20.60;99.20;;;;;;5016800;28;20018;-61
2022/03/28 07:30:48;;;;;;;13.98;8.15;;;21.00;98.50;;;;;;5015884;28;20026;-60
2022/03/28 07:33:13;;;;;;;12.85;7.90;;;21.50;97.40;;;;;;5015612;28;20093;-61
2022/03/28 07:35:39;;;;;;;12.45;7.95;;;22.50;96.30;;;;;;5016619;28;20029;-60
2022/03/28 07:38:08;;;;;;;11.35;7.72;;;22.50;94.00;;;;;;5016507;28;20029;-61
2022/03/28 07:40:36;;;;;;;12.73;7.70;;;22.60;94.50;;;;;;5015382;28;20037;-61
2022/03/28 07:43:02;;;;;;;14.88;8.13;;;23.40;93.60;;;;;;5016486;28;20022;-58
2022/03/28 07:45:28;;;;;;;12.25;7.00;;;24.40;90.50;;;;;;5015755;28;20427;-60
2022/03/28 07:47:53;;;;;;;9.43;6.80;;;25.10;89.20;;;;;;5015452;28;20108;-60
2022/03/28 07:53:57;;;;;;;8.02;6.32;;;26.60;82.00;;;;;;5016555;28;20076;-60
2022/03/28 07:56:22;;;;;;;12.15;8.05;;;27.50;81.80;;;;;;5015852;28;20033;-58
2022/03/28 07:58:48;;;;;;;9.02;7.85;;;27.70;74.60;;;;;;5015932;28;20084;-57
2022/03/28 08:01:14;;;;;;;9.15;7.10;;;27.00;73.30;;;;;;5014933;28;20030;-59
2022/03/28 08:03:40;;;;;;;10.07;7.93;;;27.40;74.50;;;;;;5016067;28;20036;-59
2022/03/28 08:06:05;;;;;;;8.38;6.97;;;27.70;72.00;;;;;;5014915;28;20028;-61
2022/03/28 08:08:32;;;;;;;10.38;7.90;;;27.80;73.20;;;;;;5014814;28;20057;-61
2022/03/28 08:10:58;;;;;;;12.65;7.22;;;27.90;70.80;;;;;;5015673;28;20041;-60
2022/03/28 08:13:24;;;;;;;12.25;7.63;;;28.00;71.10;;;;;;5014709;28;20109;-61
2022/03/28 08:15:50;;;;;;;11.00;7.57;;;27.70;70.60;;;;;;5014517;28;20125;-61
2022/03/28 08:18:16;;;;;;;11.63;8.38;;;28.10;69.10;;;;;;5014493;28;20076;-60
2022/03/28 08:20:43;;;;;;;11.15;7.82;;;28.80;67.80;;;;;;5015876;28;20022;-61
2022/03/28 08:23:09;;;;;;;11.48;7.65;;;29.40;67.00;;;;;;5014869;28;20025;-61
2022/03/28 08:25:35;;;;;;;9.23;7.35;;;29.30;66.80;;;;;;5014554;28;20075;-61
2022/03/28 08:28:01;;;;;;;15.25;8.18;;;28.70;66.60;;;;;;5014325;28;20026;-59
2022/03/28 08:30:27;;;;;;;12.23;6.88;;;29.10;65.50;;;;;;5014737;28;20041;-62
2022/03/28 08:32:55;;;;;;;9.05;8.10;;;29.40;65.40;;;;;;5015799;28;20026;-62
2022/03/28 08:35:21;;;;;;;11.00;8.90;;;29.40;64.50;;;;;;5014411;28;20030;-62
2022/03/28 08:37:47;;;;;;;12.63;8.27;;;28.60;65.40;;;;;;5014722;28;20030;-62
2022/03/28 08:40:17;;;;;;;12.77;8.77;;;28.70;65.80;;;;;;5014345;28;20026;-63
2022/03/28 08:42:44;;;;;;;15.18;9.23;;;28.30;65.70;;;;;;5014105;28;20022;-61
2022/03/28 08:45:13;;;;;;;10.60;7.57;;;27.60;66.60;;;;;;5014481;28;20026;-59
2022/03/28 08:47:42;;;;;;;11.40;8.93;;;28.90;66.40;;;;;;5014865;28;20076;-62
2022/03/28 08:50:10;;;;;;;10.90;9.07;;;29.10;63.30;;;;;;5013991;28;20022;-62
2022/03/28 08:52:36;;;;;;;9.18;8.15;;;28.60;63.50;;;;;;5015500;28;20528;-61
2022/03/28 08:55:02;;;;;;;15.93;9.10;;;27.60;67.00;;;;;;5014006;28;20018;-62
2022/03/28 08:57:28;;;;;;;9.35;7.25;;;27.70;66.10;;;;;;5013858;28;20080;-62
2022/03/28 09:00:35;;;;;;;10.23;7.95;;;29.60;65.30;;;;;;5014186;28;20076;-61
2022/03/28 09:03:01;;;;;;;10.63;8.13;;;31.30;61.50;;;;;;5015321;28;20026;-61
2022/03/28 09:05:35;;;;;;;9.52;7.43;;;30.80;60.40;;;;;;5013634;28;20396;-62
2022/03/28 09:08:03;;;;;;;12.43;9.38;;;30.70;61.80;;;;;;5013693;28;20109;-61
2022/03/28 09:10:34;;;;;;;11.02;7.75;;;30.10;61.30;;;;;;5013738;28;20046;-62
2022/03/28 09:12:59;;;;;;;9.13;7.40;;;30.80;61.30;;;;;;5013661;28;20419;-63
2022/03/28 09:15:40;;;;;;;9.80;7.22;;;31.50;60.60;;;;;;5013825;28;20026;-64
2022/03/28 09:18:05;;;;;;;10.15;7.75;;;32.30;60.00;;;;;;5014012;28;20084;-63
2022/03/28 09:20:35;;;;;;;11.50;8.43;;;33.00;58.30;;;;;;5014807;28;20038;-62
2022/03/28 09:23:29;;;;;;;10.63;8.07;;;33.10;57.40;;;;;;5013313;28;20045;-63
2022/03/28 09:29:17;;;;;;;9.75;8.00;;;32.40;58.30;;;;;;5014582;28;20029;-63
2022/03/28 09:31:43;;;;;;;10.93;8.38;;;33.40;56.80;;;;;;5013387;28;20025;-62
2022/03/28 09:34:18;;;;;;;9.55;8.07;;;34.30;55.60;;;;;;5014431;28;20061;-61
2022/03/28 09:36:55;;;;;;;8.15;7.13;;;34.50;55.30;;;;;;5014494;28;20033;-61
2022/03/28 09:39:29;;;;;;;9.50;7.75;;;34.00;55.50;;;;;;5013164;28;20073;-61
2022/03/28 09:42:09;;;;;;;8.40;7.60;;;34.20;55.70;;;;;;5013078;28;20084;-61
2022/03/28 09:44:39;;;;;;;7.82;7.03;;;34.50;56.00;;;;;;5014301;28;20105;-62
2022/03/28 09:47:10;;;;;;;10.43;7.88;;;34.80;55.20;;;;;;5012931;28;20102;-62
2022/03/28 09:49:37;;;;;;;13.40;8.20;;;35.00;54.00;;;;;;5013887;28;20029;-59
2022/03/28 09:52:05;;;;;;;7.47;5.63;;;34.50;54.20;;;;;;5014135;28;20030;-63
2022/03/28 09:54:46;;;;;;;9.07;8.18;;;35.00;54.70;;;;;;5013664;28;20173;-60
2022/03/28 09:57:13;;;;;;;9.15;6.78;;;34.50;54.10;;;;;;5014183;28;20034;-61
2022/03/28 09:59:40;;;;;;;7.45;6.10;;;34.50;54.00;;;;;;5014331;28;20029;-58
2022/03/28 10:02:21;;;;;;;10.23;8.23;;;34.80;54.50;;;;;;5012737;28;20026;-58
2022/03/28 10:04:49;;;;;;;9.57;8.57;;;34.60;54.00;;;;;;5013842;28;20065;-62
2022/03/28 10:07:15;;;;;;;9.35;7.50;;;34.20;54.00;;;;;;5012934;28;20052;-61
2022/03/28 10:09:41;;;;;;;10.48;7.32;;;34.30;54.00;;;;;;5012752;28;20109;-60
2022/03/28 10:12:08;;;;;;;7.57;6.13;;;34.00;53.90;;;;;;5012578;28;20022;-61
2022/03/28 10:14:34;;;;;;;7.35;6.63;;;34.20;54.70;;;;;;5013733;28;20084;-57
2022/03/28 10:17:05;;;;;;;11.27;10.02;;;34.30;53.40;;;;;;5013050;28;20025;-60
2022/03/28 10:19:31;;;;;;;;;;;32.90;54.50;;;;;;5014169;28;20029;-59
2022/03/28 10:21:58;;;;;;;10.60;8.63;;;31.10;57.00;;;;;;5013724;28;19953;-58
2022/03/28 10:24:25;;;;;;;9.45;5.88;;;30.40;57.70;;;;;;5013574;28;20460;-61
2022/03/28 10:26:57;;;;;;;13.80;10.25;;;30.00;58.00;;;;;;5013661;28;20097;-62
2022/03/28 10:29:32;;;;;;;13.88;10.25;;;29.00;58.70;;;;;;5012503;28;20022;-56
2022/03/28 10:32:00;;;;;;;7.20;5.68;;;28.20;59.70;;;;;;5013644;28;20022;-60
2022/03/28 10:34:56;;;;;;;13.60;8.93;;;27.70;61.80;;;;;;5012420;28;20117;-60
2022/03/28 10:37:32;;;;;;;11.55;9.88;;;27.30;62.10;;;;;;5012649;28;20028;-60
2022/03/28 10:40:23;;;;;;;14.18;9.63;;;26.70;63.60;;;;;;5013749;28;20096;-59
2022/03/28 10:42:55;;;;;;;15.77;10.60;;;25.50;65.60;;;;;;5012177;28;20022;-60
2022/03/28 10:45:30;;;;;;;11.35;7.28;;;24.40;67.60;;;;;;5012106;28;20265;-61
2022/03/28 10:47:59;;;;;;;13.93;9.27;;;24.60;68.30;;;;;;5013644;28;20018;-60
2022/03/28 10:50:30;;;;;;;13.15;8.32;;;24.90;67.00;;;;;;5012163;28;20439;-60
2022/03/28 10:53:08;;;;;;;12.98;8.23;;;24.90;67.40;;;;;;5013332;28;20018;-61
2022/03/28 10:55:55;;;;;;;13.13;8.38;;;25.10;64.70;;;;;;5012192;28;20029;-61
2022/03/28 10:58:21;;;;;;;11.48;7.78;;;24.70;65.30;;;;;;5013412;28;20073;-59
2022/03/28 11:01:05;;;;;;;11.27;6.95;;;24.60;67.10;;;;;;5012406;28;20045;-59
2022/03/28 11:03:37;;;;;;;17.23;8.48;;;24.60;67.40;;;;;;5012316;28;20458;-60
2022/03/28 11:06:04;;;;;;;8.70;5.78;;;24.70;65.30;;;;;;5012234;28;20164;-59
2022/03/28 11:08:38;;;;;;;8.95;4.70;;;24.70;60.00;;;;;;5013268;28;20022;-59
2022/03/28 11:11:24;;;;;;;7.95;4.68;;;24.70;58.50;;;;;;5011965;28;20030;-61
2022/03/28 11:14:10;;;;;;;8.02;4.32;;;24.80;59.50;;;;;;5012003;28;20121;-60
2022/03/28 11:16:40;;;;;;;8.35;4.88;;;24.80;58.40;;;;;;5013245;28;20022;-61
2022/03/28 11:19:33;;;;;;;7.53;5.05;;;24.70;58.80;;;;;;5012209;28;20022;-60
2022/03/28 11:22:04;;;;;;;8.45;4.40;;;24.60;57.30;;;;;;5012780;28;20034;-60
2022/03/28 11:24:54;;;;;;;7.20;4.15;;;24.50;59.60;;;;;;5012715;28;20030;-62
2022/03/28 11:27:21;;;;;;;7.20;4.40;;;24.50;59.30;;;;;;5013169;28;20030;-59
2022/03/28 11:29:48;;;;;;;7.07;4.50;;;24.40;59.50;;;;;;5014385;28;20053;-59
2022/03/28 11:32:16;;;;;;;9.77;4.65;;;24.20;58.20;;;;;;5015521;28;20068;-58
2022/03/28 11:34:50;;;;;;;7.53;4.15;;;24.00;59.00;;;;;;5015399;28;20116;-59
2022/03/28 11:37:19;;;;;;;8.45;4.82;;;24.00;57.90;;;;;;5015445;28;20018;-62
2022/03/28 11:40:07;;;;;;;6.65;4.75;;;23.90;59.40;;;;;;5016678;28;20121;-59
2022/03/28 11:42:35;;;;;;;11.32;4.68;;;23.80;59.60;;;;;;5016663;28;20018;-57
2022/03/28 11:45:09;;;;;;;7.95;3.70;;;23.90;58.70;;;;;;5015152;28;20033;-58
2022/03/28 11:47:37;;;;;;;8.13;3.83;;;23.90;57.80;;;;;;5015798;28;20034;-61
2022/03/28 11:50:07;;;;;;;6.93;4.03;;;23.80;57.10;;;;;;5015207;28;20022;-59
2022/03/28 11:52:34;;;;;;;10.02;5.13;;;23.80;57.60;;;;;;5016084;28;20033;-58
2022/03/28 11:55:00;;;;;;;8.75;4.78;;;23.70;58.00;;;;;;5015683;28;20026;-61
2022/03/28 12:00:16;;;;;;;10.82;4.47;;;23.50;57.60;;;;;;5016572;28;20032;-61
2022/03/28 12:02:59;;;;;;;7.32;3.38;;;23.30;57.30;;;;;;5016581;28;20093;-57
2022/03/28 12:05:34;;;;;;;8.13;3.90;;;23.30;57.60;;;;;;5015216;28;20026;-55
2022/03/28 12:08:08;;;;;;;9.38;3.40;;;23.50;56.10;;;;;;5015407;28;20476;-55
2022/03/28 12:10:36;;;;;;;8.68;3.83;;;23.50;61.00;;;;;;5014874;28;20072;-55
2022/03/28 12:13:05;;;;;;;8.40;3.83;;;23.50;58.30;;;;;;5014963;28;20033;-54
2022/03/28 12:15:34;;;;;;;5.63;3.40;;;23.30;55.30;;;;;;5015076;28;20025;-55
2022/03/28 12:18:01;;;;;;;6.68;3.88;;;23.30;58.10;;;;;;5014840;28;20089;-54
2022/03/28 12:20:30;;;;;;;9.25;4.03;;;23.20;60.10;;;;;;5014602;28;20029;-57
2022/03/28 12:22:58;;;;;;;10.35;4.03;;;23.10;61.70;;;;;;5014610;28;20025;-56
2022/03/28 12:25:30;;;;;;;8.90;4.03;;;23.20;59.20;;;;;;5015088;28;20018;-52
2022/03/28 12:27:58;;;;;;;7.57;4.40;;;23.00;57.00;;;;;;5014874;28;20022;-50
2022/03/28 12:30:31;;;;;;;5.75;3.08;;;22.90;60.20;;;;;;5015988;28;20030;-56
2022/03/28 12:32:57;;;;;;;11.57;4.50;;;22.80;63.40;;;;;;5014330;28;20076;-54
2022/03/28 12:35:23;;;;;;;10.77;5.18;;;22.80;62.70;;;;;;5015615;28;20412;-54
2022/03/28 12:38:03;;;;;;;7.55;4.80;;;22.70;61.50;;;;;;5014187;28;20018;-54
2022/03/28 12:40:31;;;;;;;6.72;4.60;;;22.70;62.90;;;;;;5014255;28;20076;-56
2022/03/28 12:42:58;;;;;;;10.48;4.60;;;22.60;62.10;;;;;;5014520;28;20026;-55
2022/03/28 12:45:29;;;;;;;7.00;4.40;;;22.50;63.20;;;;;;5014975;28;20026;-53
2022/03/28 12:48:01;;;;;;;8.43;4.95;;;22.50;64.20;;;;;;5014097;28;20542;-52
2022/03/28 12:50:28;;;;;;;12.30;5.35;;;22.50;63.70;;;;;;5014130;28;20042;-55
2022/03/28 12:53:14;;;;;;;6.80;4.15;;;22.50;62.00;;;;;;5015707;28;20030;-58
2022/03/28 12:55:43;;;;;;;8.05;4.43;;;22.60;64.90;;;;;;5015243;28;20033;-55
2022/03/28 12:58:10;;;;;;;8.82;4.82;;;22.70;64.10;;;;;;5013778;28;20034;-56
2022/03/28 13:00:38;;;;;;;7.72;4.28;;;22.50;63.10;;;;;;5013879;28;20025;-53